sensor_id;sensor_type;location;lat;lon;timestamp;pressure;altitude;pressure_sealevel;temperature;humidity
20955;BME280;10636;19.390;-99.256;2023-01-19T00:01:45;77601.63;;;24.33;25.42
20955;BME280;10636;19.390;-99.256;2023-01-19T00:04:13;77601.63;;;24.33;25.81
20955;BME280;10636;19.390;-99.256;2023-01-19T00:06:44;77610.38;;;24.33;26.03
20955;BME280;10636;19.390;-99.256;2023-01-19T00:09:13;77612.28;;;24.31;26.05
20955;BME280;10636;19.390;-99.256;2023-01-19T00:11:44;77614.94;;;24.31;26.20
20955;BME280;10636;19.390;-99.256;2023-01-19T00:14:17;77611.59;;;24.30;26.86
20955;BME280;10636;19.390;-99.256;2023-01-19T00:16:45;77617.63;;;24.31;26.19
20955;BME280;10636;19.390;-99.256;2023-01-19T00:19:14;77628.34;;;24.31;26.66
20955;BME280;10636;19.390;-99.256;2023-01-19T00:21:42;77626.97;;;24.30;27.11
20955;BME280;10636;19.390;-99.256;2023-01-19T00:24:11;77641.69;;;24.29;26.75
20955;BME280;10636;19.390;-99.256;2023-01-19T00:26:40;77630.97;;;24.29;27.77
20955;BME280;10636;19.390;-99.256;2023-01-19T00:29:10;77638.94;;;24.26;27.50
20955;BME280;10636;19.390;-99.256;2023-01-19T00:31:40;77638.94;;;24.26;27.94
20955;BME280;10636;19.390;-99.256;2023-01-19T00:34:09;77639.63;;;24.27;27.79
20955;BME280;10636;19.390;-99.256;2023-01-19T00:36:38;77647.06;;;24.29;28.24
20955;BME280;10636;19.390;-99.256;2023-01-19T00:39:07;77654.94;;;24.24;28.48
20955;BME280;10636;19.390;-99.256;2023-01-19T00:41:35;77652.94;;;24.25;28.62
20955;BME280;10636;19.390;-99.256;2023-01-19T00:44:21;77656.78;;;24.20;28.86
20955;BME280;10636;19.390;-99.256;2023-01-19T00:46:51;77660.25;;;24.22;28.86
20955;BME280;10636;19.390;-99.256;2023-01-19T00:49:19;77663.53;;;24.21;28.46
20955;BME280;10636;19.390;-99.256;2023-01-19T00:51:48;77653.38;;;24.17;29.03
20955;BME280;10636;19.390;-99.256;2023-01-19T00:54:17;77666.22;;;24.21;29.39
20955;BME280;10636;19.390;-99.256;2023-01-19T00:56:45;77670.81;;;24.18;28.87
20955;BME280;10636;19.390;-99.256;2023-01-19T00:59:14;77673.44;;;24.16;28.96
20955;BME280;10636;19.390;-99.256;2023-01-19T01:01:42;77678.78;;;24.16;28.73
20955;BME280;10636;19.390;-99.256;2023-01-19T01:04:13;77685.44;;;24.15;28.68
20955;BME280;10636;19.390;-99.256;2023-01-19T01:06:43;77680.00;;;24.13;29.32
20955;BME280;10636;19.390;-99.256;2023-01-19T01:09:14;77679.94;;;24.11;29.35
20955;BME280;10636;19.390;-99.256;2023-01-19T01:11:42;77683.25;;;24.10;29.37
20955;BME280;10636;19.390;-99.256;2023-01-19T01:14:11;77685.22;;;24.09;29.66
20955;BME280;10636;19.390;-99.256;2023-01-19T01:16:40;77686.63;;;24.10;29.34
20955;BME280;10636;19.390;-99.256;2023-01-19T01:19:09;77693.34;;;24.11;29.39
20955;BME280;10636;19.390;-99.256;2023-01-19T01:21:42;77700.00;;;24.10;29.60
20955;BME280;10636;19.390;-99.256;2023-01-19T01:24:10;77698.53;;;24.07;29.31
20955;BME280;10636;19.390;-99.256;2023-01-19T01:26:39;77697.78;;;24.05;29.84
20955;BME280;10636;19.390;-99.256;2023-01-19T01:29:07;77706.44;;;24.03;30.35
20955;BME280;10636;19.390;-99.256;2023-01-19T01:31:41;77715.72;;;24.00;30.40
20955;BME280;10636;19.390;-99.256;2023-01-19T01:34:10;77716.31;;;23.98;30.36
20955;BME280;10636;19.390;-99.256;2023-01-19T01:36:43;77721.59;;;23.96;29.90
20955;BME280;10636;19.390;-99.256;2023-01-19T01:39:11;77722.97;;;23.97;30.02
20955;BME280;10636;19.390;-99.256;2023-01-19T01:41:40;77732.94;;;23.95;30.67
20955;BME280;10636;19.390;-99.256;2023-01-19T01:47:25;77704.09;;;23.76;30.66
20955;BME280;10636;19.390;-99.256;2023-01-19T01:50:00;77735.53;;;23.93;31.11
20955;BME280;10636;19.390;-99.256;2023-01-19T01:52:35;77736.06;;;23.89;30.99
20955;BME280;10636;19.390;-99.256;2023-01-19T01:55:06;77733.31;;;23.87;30.34
20955;BME280;10636;19.390;-99.256;2023-01-19T01:57:36;77742.72;;;23.88;30.95
20955;BME280;10636;19.390;-99.256;2023-01-19T02:00:09;77748.69;;;23.87;30.72
20955;BME280;10636;19.390;-99.256;2023-01-19T02:02:38;77748.63;;;23.85;30.72
20955;BME280;10636;19.390;-99.256;2023-01-19T02:05:20;77752.44;;;23.80;31.31
20955;BME280;10636;19.390;-99.256;2023-01-19T02:07:56;77763.31;;;23.84;31.73
20955;BME280;10636;19.390;-99.256;2023-01-19T02:10:43;77759.16;;;23.81;31.35
20955;BME280;10636;19.390;-99.256;2023-01-19T02:13:30;77775.94;;;23.81;31.59
20955;BME280;10636;19.390;-99.256;2023-01-19T02:16:02;77787.31;;;23.82;31.35
20955;BME280;10636;19.390;-99.256;2023-01-19T02:18:36;77783.34;;;23.83;31.30
20955;BME280;10636;19.390;-99.256;2023-01-19T02:21:11;77796.81;;;23.85;31.34
20955;BME280;10636;19.390;-99.256;2023-01-19T02:23:46;77794.16;;;23.85;31.66
20955;BME280;10636;19.390;-99.256;2023-01-19T02:26:17;77796.13;;;23.84;32.26
20955;BME280;10636;19.390;-99.256;2023-01-19T02:28:49;77799.50;;;23.85;31.81
20955;BME280;10636;19.390;-99.256;2023-01-19T02:31:19;77806.84;;;23.84;31.36
20955;BME280;10636;19.390;-99.256;2023-01-19T02:33:48;77804.75;;;23.83;32.24
20955;BME280;10636;19.390;-99.256;2023-01-19T02:36:20;77815.19;;;23.74;31.93
20955;BME280;10636;19.390;-99.256;2023-01-19T02:38:52;77822.06;;;23.80;32.01
20955;BME280;10636;19.390;-99.256;2023-01-19T02:41:25;77826.06;;;23.79;32.25
20955;BME280;10636;19.390;-99.256;2023-01-19T02:43:56;77821.84;;;23.73;32.72
20955;BME280;10636;19.390;-99.256;2023-01-19T02:46:25;77832.78;;;23.80;32.28
20955;BME280;10636;19.390;-99.256;2023-01-19T02:49:01;77829.41;;;23.79;32.87
20955;BME280;10636;19.390;-99.256;2023-01-19T02:51:29;77837.44;;;23.79;32.39
20955;BME280;10636;19.390;-99.256;2023-01-19T02:54:35;77835.38;;;23.78;33.45
20955;BME280;10636;19.390;-99.256;2023-01-19T02:57:25;77848.75;;;23.78;33.32
20955;BME280;10636;19.390;-99.256;2023-01-19T03:00:06;77852.72;;;23.77;33.23
20955;BME280;10636;19.390;-99.256;2023-01-19T03:02:46;77851.34;;;23.76;33.06
20955;BME280;10636;19.390;-99.256;2023-01-19T03:05:28;77850.00;;;23.74;32.56
20955;BME280;10636;19.390;-99.256;2023-01-19T03:08:08;77847.06;;;23.68;32.91
20955;BME280;10636;19.390;-99.256;2023-01-19T03:10:47;77853.88;;;23.71;33.26
20955;BME280;10636;19.390;-99.256;2023-01-19T03:13:28;77862.59;;;23.72;32.79
20955;BME280;10636;19.390;-99.256;2023-01-19T03:16:05;77861.91;;;23.71;33.39
20955;BME280;10636;19.390;-99.256;2023-01-19T03:18:39;77869.88;;;23.69;32.87
20955;BME280;10636;19.390;-99.256;2023-01-19T03:21:12;77873.91;;;23.70;33.44
20955;BME280;10636;19.390;-99.256;2023-01-19T03:23:44;77879.19;;;23.68;33.26
20955;BME280;10636;19.390;-99.256;2023-01-19T03:26:19;77890.59;;;23.69;32.57
20955;BME280;10636;19.390;-99.256;2023-01-19T03:28:57;77896.53;;;23.67;33.16
20955;BME280;10636;19.390;-99.256;2023-01-19T03:31:39;77895.16;;;23.66;32.97
20955;BME280;10636;19.390;-99.256;2023-01-19T03:34:16;77895.72;;;23.63;32.46
20955;BME280;10636;19.390;-99.256;2023-01-19T03:36:51;77899.06;;;23.63;33.09
20955;BME280;10636;19.390;-99.256;2023-01-19T03:39:22;77895.72;;;23.63;32.74
20955;BME280;10636;19.390;-99.256;2023-01-19T03:41:56;77896.41;;;23.63;32.89
20955;BME280;10636;19.390;-99.256;2023-01-19T03:44:26;77904.31;;;23.61;32.70
20955;BME280;10636;19.390;-99.256;2023-01-19T03:47:00;77897.56;;;23.60;31.99
20955;BME280;10636;19.390;-99.256;2023-01-19T03:49:30;77906.91;;;23.59;32.79
20955;BME280;10636;19.390;-99.256;2023-01-19T03:52:03;77895.84;;;23.51;32.25
20955;BME280;10636;19.390;-99.256;2023-01-19T03:54:34;77910.72;;;23.54;32.25
20955;BME280;10636;19.390;-99.256;2023-01-19T03:57:04;77905.38;;;23.54;32.20
20955;BME280;10636;19.390;-99.256;2023-01-19T03:59:41;77898.47;;;23.49;32.47
20955;BME280;10636;19.390;-99.256;2023-01-19T04:02:10;77920.06;;;23.53;32.48
20955;BME280;10636;19.390;-99.256;2023-01-19T04:04:39;77918.69;;;23.52;32.20
20955;BME280;10636;19.390;-99.256;2023-01-19T04:07:09;77918.56;;;23.50;31.81
20955;BME280;10636;19.390;-99.256;2023-01-19T04:09:37;77926.44;;;23.46;32.38
20955;BME280;10636;19.390;-99.256;2023-01-19T04:12:10;77925.66;;;23.43;32.44
20955;BME280;10636;19.390;-99.256;2023-01-19T04:14:41;77928.34;;;23.43;32.75
20955;BME280;10636;19.390;-99.256;2023-01-19T04:17:10;77928.97;;;23.42;32.20
20955;BME280;10636;19.390;-99.256;2023-01-19T04:19:39;77924.81;;;23.39;32.63
20955;BME280;10636;19.390;-99.256;2023-01-19T04:22:11;77938.19;;;23.39;32.19
20955;BME280;10636;19.390;-99.256;2023-01-19T04:24:42;77944.84;;;23.38;32.85
20955;BME280;10636;19.390;-99.256;2023-01-19T04:27:12;77944.75;;;23.36;32.56
20955;BME280;10636;19.390;-99.256;2023-01-19T04:29:41;77944.66;;;23.34;32.91
20955;BME280;10636;19.390;-99.256;2023-01-19T04:32:12;77940.00;;;23.34;32.23
20955;BME280;10636;19.390;-99.256;2023-01-19T04:34:41;77950.69;;;23.34;32.30
20955;BME280;10636;19.390;-99.256;2023-01-19T04:37:10;77950.69;;;23.34;32.69
20955;BME280;10636;19.390;-99.256;2023-01-19T04:39:38;77954.00;;;23.33;33.25
20955;BME280;10636;19.390;-99.256;2023-01-19T04:42:07;77953.91;;;23.31;32.58
20955;BME280;10636;19.390;-99.256;2023-01-19T04:44:37;77952.44;;;23.28;32.77
20955;BME280;10636;19.390;-99.256;2023-01-19T04:47:06;77951.66;;;23.25;32.95
20955;BME280;10636;19.390;-99.256;2023-01-19T04:49:34;77953.03;;;23.26;32.69
20955;BME280;10636;19.390;-99.256;2023-01-19T04:52:04;77949.69;;;23.26;33.08
20955;BME280;10636;19.390;-99.256;2023-01-19T04:54:33;77949.75;;;23.28;33.26
20955;BME280;10636;19.390;-99.256;2023-01-19T04:57:10;77955.19;;;23.30;32.84
20955;BME280;10636;19.390;-99.256;2023-01-19T04:59:40;77957.19;;;23.29;33.06
20955;BME280;10636;19.390;-99.256;2023-01-19T05:02:09;77951.81;;;23.29;33.38
20955;BME280;10636;19.390;-99.256;2023-01-19T05:04:38;77957.19;;;23.29;33.37
20955;BME280;10636;19.390;-99.256;2023-01-19T05:07:06;77958.47;;;23.28;32.69
20955;BME280;10636;19.390;-99.256;2023-01-19T05:09:35;77961.84;;;23.29;33.51
20955;BME280;10636;19.390;-99.256;2023-01-19T05:12:04;77965.13;;;23.27;33.40
20955;BME280;10636;19.390;-99.256;2023-01-19T05:14:33;77962.34;;;23.25;33.43
20955;BME280;10636;19.390;-99.256;2023-01-19T05:17:03;77958.97;;;23.25;33.45
20955;BME280;10636;19.390;-99.256;2023-01-19T05:19:32;77953.56;;;23.22;32.91
20955;BME280;10636;19.390;-99.256;2023-01-19T05:22:01;77961.66;;;23.25;32.48
20955;BME280;10636;19.390;-99.256;2023-01-19T05:24:30;77952.34;;;23.26;33.34
20955;BME280;10636;19.390;-99.256;2023-01-19T05:27:01;77954.75;;;23.19;33.16
20955;BME280;10636;19.390;-99.256;2023-01-19T05:29:29;77954.94;;;23.23;32.50
20955;BME280;10636;19.390;-99.256;2023-01-19T05:31:58;77945.44;;;23.20;32.90
20955;BME280;10636;19.390;-99.256;2023-01-19T05:34:28;77946.81;;;23.21;32.90
20955;BME280;10636;19.390;-99.256;2023-01-19T05:36:59;77941.47;;;23.21;32.43
20955;BME280;10636;19.390;-99.256;2023-01-19T05:39:28;77948.13;;;23.20;32.33
20955;BME280;10636;19.390;-99.256;2023-01-19T05:42:02;77937.31;;;23.18;32.11
20955;BME280;10636;19.390;-99.256;2023-01-19T05:44:30;77933.34;;;23.19;32.32
20955;BME280;10636;19.390;-99.256;2023-01-19T05:46:59;77933.34;;;23.19;31.95
20955;BME280;10636;19.390;-99.256;2023-01-19T05:49:29;77939.94;;;23.16;32.50
20955;BME280;10636;19.390;-99.256;2023-01-19T05:51:58;77935.94;;;23.17;32.54
20955;BME280;10636;19.390;-99.256;2023-01-19T05:54:26;77931.78;;;23.14;32.72
20955;BME280;10636;19.390;-99.256;2023-01-19T05:56:55;77934.38;;;23.12;31.86
20955;BME280;10636;19.390;-99.256;2023-01-19T05:59:23;77941.03;;;23.11;31.78
20955;BME280;10636;19.390;-99.256;2023-01-19T06:01:52;77934.75;;;23.05;31.93
20955;BME280;10636;19.390;-99.256;2023-01-19T06:04:25;77949.69;;;23.10;32.01
20955;BME280;10636;19.390;-99.256;2023-01-19T06:06:55;77936.81;;;23.06;32.59
20955;BME280;10636;19.390;-99.256;2023-01-19T06:09:24;77944.84;;;23.06;32.44
20955;BME280;10636;19.390;-99.256;2023-01-19T06:11:52;77936.81;;;23.06;32.59
20955;BME280;10636;19.390;-99.256;2023-01-19T06:14:21;77934.03;;;23.04;31.87
20955;BME280;10636;19.390;-99.256;2023-01-19T06:16:50;77934.03;;;23.04;32.47
20955;BME280;10636;19.390;-99.256;2023-01-19T06:19:19;77934.03;;;23.04;31.93
20955;BME280;10636;19.390;-99.256;2023-01-19T06:21:48;77927.16;;;22.99;31.88
20955;BME280;10636;19.390;-99.256;2023-01-19T06:24:19;77933.19;;;23.00;31.66
20955;BME280;10636;19.390;-99.256;2023-01-19T06:26:48;77923.19;;;23.00;31.39
20955;BME280;10636;19.390;-99.256;2023-01-19T06:29:17;77933.88;;;23.00;32.13
20955;BME280;10636;19.390;-99.256;2023-01-19T06:31:45;77933.88;;;23.00;31.40
20955;BME280;10636;19.390;-99.256;2023-01-19T06:34:14;77941.81;;;22.98;32.01
20955;BME280;10636;19.390;-99.256;2023-01-19T06:36:42;77935.75;;;22.98;32.11
20955;BME280;10636;19.390;-99.256;2023-01-19T06:39:11;77934.38;;;22.96;32.21
20955;BME280;10636;19.390;-99.256;2023-01-19T06:41:41;77933.69;;;22.96;31.37
20955;BME280;10636;19.390;-99.256;2023-01-19T06:44:10;77928.97;;;22.94;32.16
20955;BME280;10636;19.390;-99.256;2023-01-19T06:46:38;77930.94;;;22.94;31.22
20955;BME280;10636;19.390;-99.256;2023-01-19T06:49:07;77936.28;;;22.94;31.54
20955;BME280;10636;19.390;-99.256;2023-01-19T06:51:36;77927.97;;;22.88;31.62
20955;BME280;10636;19.390;-99.256;2023-01-19T06:54:07;77928.84;;;22.92;31.85
20955;BME280;10636;19.390;-99.256;2023-01-19T06:56:36;77925.41;;;22.90;31.41
20955;BME280;10636;19.390;-99.256;2023-01-19T06:59:06;77925.50;;;22.92;30.91
20955;BME280;10636;19.390;-99.256;2023-01-19T07:01:35;77919.97;;;22.88;31.23
20955;BME280;10636;19.390;-99.256;2023-01-19T07:04:04;77922.75;;;22.90;31.73
20955;BME280;10636;19.390;-99.256;2023-01-19T07:06:32;77923.31;;;22.88;31.68
20955;BME280;10636;19.390;-99.256;2023-01-19T07:09:01;77924.59;;;22.87;31.17
20955;BME280;10636;19.390;-99.256;2023-01-19T07:11:33;77926.59;;;22.87;31.15
20955;BME280;10636;19.390;-99.256;2023-01-19T07:14:01;77914.50;;;22.86;31.19
20955;BME280;10636;19.390;-99.256;2023-01-19T07:16:32;77910.97;;;22.81;31.57
20955;BME280;10636;19.390;-99.256;2023-01-19T07:19:01;77920.38;;;22.82;31.01
20955;BME280;10636;19.390;-99.256;2023-01-19T07:21:30;77912.94;;;22.81;31.39
20955;BME280;10636;19.390;-99.256;2023-01-19T07:23:58;77919.00;;;22.81;30.88
20955;BME280;10636;19.390;-99.256;2023-01-19T07:26:27;77916.94;;;22.80;31.58
20955;BME280;10636;19.390;-99.256;2023-01-19T07:28:56;77911.47;;;22.78;31.59
20955;BME280;10636;19.390;-99.256;2023-01-19T07:31:25;77904.84;;;22.79;31.16
20955;BME280;10636;19.390;-99.256;2023-01-19T07:33:55;77914.16;;;22.78;31.35
20955;BME280;10636;19.390;-99.256;2023-01-19T07:36:23;77916.75;;;22.76;31.49
20955;BME280;10636;19.390;-99.256;2023-01-19T07:38:52;77913.47;;;22.77;31.57
20955;BME280;10636;19.390;-99.256;2023-01-19T07:41:21;77912.09;;;22.76;31.33
20955;BME280;10636;19.390;-99.256;2023-01-19T07:43:49;77908.66;;;22.74;30.71
20955;BME280;10636;19.390;-99.256;2023-01-19T07:46:18;77909.22;;;22.72;30.89
20955;BME280;10636;19.390;-99.256;2023-01-19T07:48:47;77907.25;;;22.73;30.69
20955;BME280;10636;19.390;-99.256;2023-01-19T07:51:17;77913.88;;;22.71;30.96
20955;BME280;10636;19.390;-99.256;2023-01-19T07:53:48;77907.16;;;22.70;31.12
20955;BME280;10636;19.390;-99.256;2023-01-19T07:56:16;77903.81;;;22.70;31.51
20955;BME280;10636;19.390;-99.256;2023-01-19T07:58:45;77901.06;;;22.68;30.65
20955;BME280;10636;19.390;-99.256;2023-01-19T08:01:15;77895.69;;;22.68;30.39
20955;BME280;10636;19.390;-99.256;2023-01-19T08:03:46;77895.00;;;22.67;30.42
20955;BME280;10636;19.390;-99.256;2023-01-19T08:06:19;77893.63;;;22.66;31.35
20955;BME280;10636;19.390;-99.256;2023-01-19T08:08:49;77886.88;;;22.65;30.80
20955;BME280;10636;19.390;-99.256;2023-01-19T08:11:17;77883.53;;;22.65;30.72
20955;BME280;10636;19.390;-99.256;2023-01-19T08:13:46;77882.84;;;22.64;30.45
20955;BME280;10636;19.390;-99.256;2023-01-19T08:16:15;77878.78;;;22.63;31.24
20955;BME280;10636;19.390;-99.256;2023-01-19T08:18:43;77878.78;;;22.63;30.97
20955;BME280;10636;19.390;-99.256;2023-01-19T08:21:12;77869.81;;;22.57;30.45
20955;BME280;10636;19.390;-99.256;2023-01-19T08:23:42;77873.25;;;22.59;30.39
20955;BME280;10636;19.390;-99.256;2023-01-19T08:26:18;77881.22;;;22.57;31.08
20955;BME280;10636;19.390;-99.256;2023-01-19T08:28:49;77874.47;;;22.56;30.92
20955;BME280;10636;19.390;-99.256;2023-01-19T08:31:17;77857.91;;;22.44;30.73
20955;BME280;10636;19.390;-99.256;2023-01-19T08:33:46;77870.50;;;22.57;30.48
20955;BME280;10636;19.390;-99.256;2023-01-19T08:36:15;77875.19;;;22.57;31.15
20955;BME280;10636;19.390;-99.256;2023-01-19T08:38:45;77870.50;;;22.57;31.40
20955;BME280;10636;19.390;-99.256;2023-01-19T08:41:16;77867.06;;;22.55;30.90
20955;BME280;10636;19.390;-99.256;2023-01-19T08:43:45;77868.16;;;22.50;31.37
20955;BME280;10636;19.390;-99.256;2023-01-19T08:46:13;77866.28;;;22.52;30.61
20955;BME280;10636;19.390;-99.256;2023-01-19T08:48:46;77866.38;;;22.54;30.85
20955;BME280;10636;19.390;-99.256;2023-01-19T08:51:15;77858.25;;;22.52;31.20
20955;BME280;10636;19.390;-99.256;2023-01-19T08:53:46;77858.25;;;22.52;30.93
20955;BME280;10636;19.390;-99.256;2023-01-19T08:56:15;77871.53;;;22.50;31.30
20955;BME280;10636;19.390;-99.256;2023-01-19T08:58:44;77871.53;;;22.50;31.59
20955;BME280;10636;19.390;-99.256;2023-01-19T09:01:13;77870.84;;;22.50;31.53
20955;BME280;10636;19.390;-99.256;2023-01-19T09:03:42;77862.13;;;22.49;30.85
20955;BME280;10636;19.390;-99.256;2023-01-19T09:06:12;77869.47;;;22.49;30.84
20955;BME280;10636;19.390;-99.256;2023-01-19T09:08:42;77866.00;;;22.46;30.92
20955;BME280;10636;19.390;-99.256;2023-01-19T09:11:14;77863.25;;;22.44;30.87
20955;BME280;10636;19.390;-99.256;2023-01-19T09:13:44;77863.25;;;22.44;31.45
20955;BME280;10636;19.390;-99.256;2023-01-19T09:16:12;77868.59;;;22.44;31.69
20955;BME280;10636;19.390;-99.256;2023-01-19T09:18:41;77867.91;;;22.43;30.97
20955;BME280;10636;19.390;-99.256;2023-01-19T09:21:11;77863.25;;;22.44;31.70
20955;BME280;10636;19.390;-99.256;2023-01-19T09:23:40;77855.16;;;22.42;31.16
20955;BME280;10636;19.390;-99.256;2023-01-19T09:26:11;77867.22;;;22.43;31.16
20955;BME280;10636;19.390;-99.256;2023-01-19T09:28:39;77871.88;;;22.42;31.68
20955;BME280;10636;19.390;-99.256;2023-01-19T09:31:08;77869.81;;;22.41;31.01
20955;BME280;10636;19.390;-99.256;2023-01-19T09:33:37;77861.69;;;22.39;31.53
20955;BME280;10636;19.390;-99.256;2023-01-19T09:36:06;77865.66;;;22.38;31.62
20955;BME280;10636;19.390;-99.256;2023-01-19T09:38:35;77867.03;;;22.39;31.00
20955;BME280;10636;19.390;-99.256;2023-01-19T09:41:16;77861.00;;;22.38;31.84
20955;BME280;10636;19.390;-99.256;2023-01-19T09:43:49;77860.81;;;22.34;31.01
20955;BME280;10636;19.390;-99.256;2023-01-19T09:46:20;77860.22;;;22.36;32.00
20955;BME280;10636;19.390;-99.256;2023-01-19T09:48:51;77857.47;;;22.34;31.06
20955;BME280;10636;19.390;-99.256;2023-01-19T09:51:23;77855.72;;;22.25;31.52
20955;BME280;10636;19.390;-99.256;2023-01-19T09:53:57;77861.34;;;22.31;31.45
20955;BME280;10636;19.390;-99.256;2023-01-19T09:56:29;77859.25;;;22.29;31.20
20955;BME280;10636;19.390;-99.256;2023-01-19T09:58:59;77865.22;;;22.28;31.43
20955;BME280;10636;19.390;-99.256;2023-01-19T10:01:39;77857.19;;;22.28;31.90
20955;BME280;10636;19.390;-99.256;2023-01-19T10:04:31;77862.53;;;22.28;31.16
20955;BME280;10636;19.390;-99.256;2023-01-19T10:07:10;77867.19;;;22.27;31.90
20955;BME280;10636;19.390;-99.256;2023-01-19T10:09:50;77868.50;;;22.26;31.86
20955;BME280;10636;19.390;-99.256;2023-01-19T10:12:38;77864.44;;;22.25;31.48
20955;BME280;10636;19.390;-99.256;2023-01-19T10:15:16;77855.63;;;22.23;31.29
20955;BME280;10636;19.390;-99.256;2023-01-19T10:17:56;77857.00;;;22.24;31.46
20955;BME280;10636;19.390;-99.256;2023-01-19T10:20:30;77860.97;;;22.23;31.45
20955;BME280;10636;19.390;-99.256;2023-01-19T10:23:01;77861.66;;;22.23;31.44
20955;BME280;10636;19.390;-99.256;2023-01-19T10:25:32;77859.00;;;22.23;31.26
20955;BME280;10636;19.390;-99.256;2023-01-19T10:28:03;77855.63;;;22.23;31.65
20955;BME280;10636;19.390;-99.256;2023-01-19T10:30:31;77865.03;;;22.24;31.57
20955;BME280;10636;19.390;-99.256;2023-01-19T10:33:00;77864.25;;;22.21;31.23
20955;BME280;10636;19.390;-99.256;2023-01-19T10:35:29;77862.16;;;22.19;31.16
20955;BME280;10636;19.390;-99.256;2023-01-19T10:37:59;77863.56;;;22.21;31.49
20955;BME280;10636;19.390;-99.256;2023-01-19T10:40:32;77862.09;;;22.17;31.13
20955;BME280;10636;19.390;-99.256;2023-01-19T10:46:22;77870.59;;;22.14;31.38
20955;BME280;10636;19.390;-99.256;2023-01-19T10:48:55;77871.19;;;22.12;31.63
20955;BME280;10636;19.390;-99.256;2023-01-19T10:51:23;77867.16;;;22.11;32.07
20955;BME280;10636;19.390;-99.256;2023-01-19T10:53:55;77855.81;;;21.97;31.28
20955;BME280;10636;19.390;-99.256;2023-01-19T10:56:26;77873.88;;;22.12;31.27
20955;BME280;10636;19.390;-99.256;2023-01-19T10:58:59;77873.88;;;22.12;31.11
20955;BME280;10636;19.390;-99.256;2023-01-19T11:01:29;77869.81;;;22.11;31.00
20955;BME280;10636;19.390;-99.256;2023-01-19T11:04:19;77869.72;;;22.09;31.12
20955;BME280;10636;19.390;-99.256;2023-01-19T11:06:48;77879.00;;;22.08;32.00
20955;BME280;10636;19.390;-99.256;2023-01-19T11:09:18;77875.63;;;22.08;31.28
20955;BME280;10636;19.390;-99.256;2023-01-19T11:11:49;77888.31;;;22.07;31.09
20955;BME280;10636;19.390;-99.256;2023-01-19T11:14:22;77878.03;;;22.02;31.52
20955;BME280;10636;19.390;-99.256;2023-01-19T11:16:53;77885.56;;;22.05;31.21
20955;BME280;10636;19.390;-99.256;2023-01-19T11:19:26;77890.91;;;22.05;31.47
20955;BME280;10636;19.390;-99.256;2023-01-19T11:22:14;77894.88;;;22.04;31.74
20955;BME280;10636;19.390;-99.256;2023-01-19T11:24:50;77893.47;;;22.03;31.54
20955;BME280;10636;19.390;-99.256;2023-01-19T11:27:19;77896.81;;;22.04;31.33
20955;BME280;10636;19.390;-99.256;2023-01-19T11:29:56;77892.78;;;22.03;32.08
20955;BME280;10636;19.390;-99.256;2023-01-19T11:32:26;77892.09;;;22.02;31.12
20955;BME280;10636;19.390;-99.256;2023-01-19T11:34:55;77898.13;;;22.03;31.87
20955;BME280;10636;19.390;-99.256;2023-01-19T11:37:29;77894.66;;;22.00;31.26
20955;BME280;10636;19.390;-99.256;2023-01-19T11:40:00;77897.22;;;21.98;31.36
20955;BME280;10636;19.390;-99.256;2023-01-19T11:42:32;77893.19;;;21.97;32.05
20955;BME280;10636;19.390;-99.256;2023-01-19T11:45:11;77901.19;;;21.97;31.53
20955;BME280;10636;19.390;-99.256;2023-01-19T11:47:43;77899.75;;;21.94;31.81
20955;BME280;10636;19.390;-99.256;2023-01-19T11:50:21;77905.66;;;21.92;31.65
20955;BME280;10636;19.390;-99.256;2023-01-19T11:52:54;77907.06;;;21.93;31.90
20955;BME280;10636;19.390;-99.256;2023-01-19T11:55:30;77906.94;;;21.91;31.46
20955;BME280;10636;19.390;-99.256;2023-01-19T11:58:02;77909.63;;;21.91;31.60
20955;BME280;10636;19.390;-99.256;2023-01-19T12:00:37;77912.97;;;21.92;31.35
20955;BME280;10636;19.390;-99.256;2023-01-19T12:03:13;77921.00;;;21.92;32.11
20955;BME280;10636;19.390;-99.256;2023-01-19T12:05:47;77918.44;;;21.94;32.02
20955;BME280;10636;19.390;-99.256;2023-01-19T12:08:21;77918.22;;;21.90;31.79
20955;BME280;10636;19.390;-99.256;2023-01-19T12:10:53;77932.34;;;21.92;31.52
20955;BME280;10636;19.390;-99.256;2023-01-19T12:13:25;77931.66;;;21.92;32.11
20955;BME280;10636;19.390;-99.256;2023-01-19T12:15:59;77932.19;;;21.88;32.67
20955;BME280;10636;19.390;-99.256;2023-01-19T12:18:34;77942.94;;;21.90;32.66
20955;BME280;10636;19.390;-99.256;2023-01-19T12:21:04;77930.91;;;21.89;32.20
20955;BME280;10636;19.390;-99.256;2023-01-19T12:23:45;77942.25;;;21.90;32.56
20955;BME280;10636;19.390;-99.256;2023-01-19T12:26:27;77943.56;;;21.89;32.64
20955;BME280;10636;19.390;-99.256;2023-01-19T12:29:02;77946.13;;;21.87;31.91
20955;BME280;10636;19.390;-99.256;2023-01-19T12:31:34;77948.00;;;21.84;32.56
20955;BME280;10636;19.390;-99.256;2023-01-19T12:34:28;77944.38;;;21.78;32.51
20955;BME280;10636;19.390;-99.256;2023-01-19T12:37:01;77957.41;;;21.85;31.80
20955;BME280;10636;19.390;-99.256;2023-01-19T12:39:31;77956.09;;;21.86;31.78
20955;BME280;10636;19.390;-99.256;2023-01-19T12:42:05;77951.25;;;21.83;32.07
20955;BME280;10636;19.390;-99.256;2023-01-19T12:44:35;77962.47;;;21.79;32.19
20955;BME280;10636;19.390;-99.256;2023-01-19T12:47:19;77964.25;;;21.75;31.83
20955;BME280;10636;19.390;-99.256;2023-01-19T12:49:51;77966.22;;;21.74;31.50
20955;BME280;10636;19.390;-99.256;2023-01-19T12:52:39;77961.38;;;21.71;31.46
20955;BME280;10636;19.390;-99.256;2023-01-19T12:55:20;77971.34;;;21.70;31.29
20955;BME280;10636;19.390;-99.256;2023-01-19T12:57:54;77969.09;;;21.64;31.26
20955;BME280;10636;19.390;-99.256;2023-01-19T13:00:35;77980.53;;;21.67;31.77
20955;BME280;10636;19.390;-99.256;2023-01-19T13:06:06;77989.06;;;21.63;31.49
20955;BME280;10636;19.390;-99.256;2023-01-19T13:08:58;77990.94;;;21.61;30.78
20955;BME280;10636;19.390;-99.256;2023-01-19T13:11:27;77985.91;;;21.53;30.97
20955;BME280;10636;19.390;-99.256;2023-01-19T13:17:24;78001.44;;;21.57;31.49